sensor_id;sensor_type;location;lat;lon;timestamp;pressure;altitude;pressure_sealevel;temperature;humidity
43298;BME280;28892;55.640;37.532;2023-02-13T00:01:21;98953.34;;;-4.31;59.68
43298;BME280;28892;55.640;37.532;2023-02-13T00:03:46;98953.06;;;-4.26;59.88
43298;BME280;28892;55.640;37.532;2023-02-13T00:06:12;98944.19;;;-4.22;59.67
43298;BME280;28892;55.640;37.532;2023-02-13T00:08:38;98942.97;;;-4.16;59.24
43298;BME280;28892;55.640;37.532;2023-02-13T00:11:03;98944.34;;;-4.11;59.04
43298;BME280;28892;55.640;37.532;2023-02-13T00:13:29;98932.63;;;-4.16;59.03
43298;BME280;28892;55.640;37.532;2023-02-13T00:15:59;98932.34;;;-4.12;59.64
43298;BME280;28892;55.640;37.532;2023-02-13T00:18:26;98929.09;;;-4.15;59.41
43298;BME280;28892;55.640;37.532;2023-02-13T00:21:07;98921.03;;;-4.25;59.78
43298;BME280;28892;55.640;37.532;2023-02-13T00:23:34;98918.44;;;-4.25;59.77
43298;BME280;28892;55.640;37.532;2023-02-13T00:26:08;98923.84;;;-4.28;60.04
43298;BME280;28892;55.640;37.532;2023-02-13T00:28:35;98911.63;;;-4.26;59.89
43298;BME280;28892;55.640;37.532;2023-02-13T00:31:04;98899.31;;;-4.23;59.82
43298;BME280;28892;55.640;37.532;2023-02-13T00:33:30;98910.38;;;-4.06;59.35
43298;BME280;28892;55.640;37.532;2023-02-13T00:36:19;98899.88;;;-3.90;59.58
43298;BME280;28892;55.640;37.532;2023-02-13T00:38:46;98904.44;;;-3.94;59.12
43298;BME280;28892;55.640;37.532;2023-02-13T00:41:13;98892.69;;;-3.99;59.24
43298;BME280;28892;55.640;37.532;2023-02-13T00:43:41;98892.13;;;-4.04;59.40
43298;BME280;28892;55.640;37.532;2023-02-13T00:46:06;98889.25;;;-4.00;59.52
43298;BME280;28892;55.640;37.532;2023-02-13T00:48:33;98877.81;;;-4.10;59.28
43298;BME280;28892;55.640;37.532;2023-02-13T00:50:59;98874.94;;;-4.05;59.61
43298;BME280;28892;55.640;37.532;2023-02-13T00:53:25;98870.97;;;-4.11;59.38
43298;BME280;28892;55.640;37.532;2023-02-13T00:55:51;98864.03;;;-4.11;59.54
43298;BME280;28892;55.640;37.532;2023-02-13T00:58:18;98856.97;;;-4.36;59.64
43298;BME280;28892;55.640;37.532;2023-02-13T01:00:44;98863.34;;;-4.27;60.03
43298;BME280;28892;55.640;37.532;2023-02-13T01:03:16;98865.78;;;-4.11;59.78
43298;BME280;28892;55.640;37.532;2023-02-13T01:05:44;98859.19;;;-4.02;59.45
43298;BME280;28892;55.640;37.532;2023-02-13T01:08:11;98872.06;;;-4.01;59.31
43298;BME280;28892;55.640;37.532;2023-02-13T01:10:38;98860.53;;;-4.10;59.43
43298;BME280;28892;55.640;37.532;2023-02-13T01:13:07;98862.63;;;-4.02;59.23
43298;BME280;28892;55.640;37.532;2023-02-13T01:15:33;98864.50;;;-3.91;59.25
43298;BME280;28892;55.640;37.532;2023-02-13T01:17:59;98857.28;;;-3.86;58.77
43298;BME280;28892;55.640;37.532;2023-02-13T01:20:29;98856.06;;;-3.80;58.99
43298;BME280;28892;55.640;37.532;2023-02-13T01:22:57;98861.16;;;-3.79;58.79
43298;BME280;28892;55.640;37.532;2023-02-13T01:25:22;98857.81;;;-4.08;58.64
43298;BME280;28892;55.640;37.532;2023-02-13T01:27:49;98858.88;;;-4.11;58.66
43298;BME280;28892;55.640;37.532;2023-02-13T01:30:17;98850.41;;;-4.00;59.08
43298;BME280;28892;55.640;37.532;2023-02-13T01:32:45;98844.53;;;-3.89;58.58
43298;BME280;28892;55.640;37.532;2023-02-13T01:35:13;98839.06;;;-3.84;58.66
43298;BME280;28892;55.640;37.532;2023-02-13T01:37:42;98831.06;;;-3.81;58.53
43298;BME280;28892;55.640;37.532;2023-02-13T01:40:12;98823.09;;;-3.78;58.37
43298;BME280;28892;55.640;37.532;2023-02-13T01:42:38;98821.44;;;-3.79;58.36
43298;BME280;28892;55.640;37.532;2023-02-13T01:45:18;98810.63;;;-3.86;58.58
43298;BME280;28892;55.640;37.532;2023-02-13T01:47:48;98806.78;;;-3.93;58.20
43298;BME280;28892;55.640;37.532;2023-02-13T01:55:50;98804.47;;;-4.38;60.30
43298;BME280;28892;55.640;37.532;2023-02-13T01:58:21;98796.63;;;-4.24;59.82
43298;BME280;28892;55.640;37.532;2023-02-13T02:00:49;98782.16;;;-4.13;58.89
43298;BME280;28892;55.640;37.532;2023-02-13T02:03:20;98783.66;;;-3.96;58.76
43298;BME280;28892;55.640;37.532;2023-02-13T02:05:50;98783.44;;;-3.93;58.46
43298;BME280;28892;55.640;37.532;2023-02-13T02:08:17;98771.75;;;-3.86;58.13
43298;BME280;28892;55.640;37.532;2023-02-13T02:10:50;98776.63;;;-3.94;58.34
43298;BME280;28892;55.640;37.532;2023-02-13T02:13:18;98775.16;;;-3.98;58.36
43298;BME280;28892;55.640;37.532;2023-02-13T02:15:46;98771.84;;;-4.00;58.59
43298;BME280;28892;55.640;37.532;2023-02-13T02:18:18;98774.63;;;-4.03;58.80
43298;BME280;28892;55.640;37.532;2023-02-13T02:26:42;98761.41;;;-3.86;58.69
43298;BME280;28892;55.640;37.532;2023-02-13T02:32:05;98752.91;;;-3.88;58.49
43298;BME280;28892;55.640;37.532;2023-02-13T02:40:36;98735.47;;;-3.86;59.21
43298;BME280;28892;55.640;37.532;2023-02-13T02:46:26;98724.41;;;-3.62;58.46
43298;BME280;28892;55.640;37.532;2023-02-13T02:49:03;98717.22;;;-3.71;58.73
43298;BME280;28892;55.640;37.532;2023-02-13T02:52:03;98717.06;;;-3.68;58.67
43298;BME280;28892;55.640;37.532;2023-02-13T02:54:38;98712.25;;;-3.74;58.70
43298;BME280;28892;55.640;37.532;2023-02-13T02:57:31;98704.81;;;-3.66;58.62
43298;BME280;28892;55.640;37.532;2023-02-13T03:00:20;98709.56;;;-3.86;58.88
43298;BME280;28892;55.640;37.532;2023-02-13T03:03:18;98707.09;;;-3.74;59.16
43298;BME280;28892;55.640;37.532;2023-02-13T03:06:10;98694.31;;;-3.65;58.81
43298;BME280;28892;55.640;37.532;2023-02-13T03:08:45;98701.91;;;-3.61;58.99
43298;BME280;28892;55.640;37.532;2023-02-13T03:11:30;98693.38;;;-3.63;58.57
43298;BME280;28892;55.640;37.532;2023-02-13T03:14:19;98697.84;;;-3.53;58.50
43298;BME280;28892;55.640;37.532;2023-02-13T03:16:45;98684.16;;;-3.55;58.53
43298;BME280;28892;55.640;37.532;2023-02-13T03:19:36;98698.16;;;-3.57;58.69
43298;BME280;28892;55.640;37.532;2023-02-13T03:31:51;98673.56;;;-3.65;60.02
43298;BME280;28892;55.640;37.532;2023-02-13T03:34:29;98667.97;;;-3.58;60.21
43298;BME280;28892;55.640;37.532;2023-02-13T03:37:17;98661.75;;;-3.56;59.81
43298;BME280;28892;55.640;37.532;2023-02-13T03:40:17;98656.84;;;-3.47;60.03
43298;BME280;28892;55.640;37.532;2023-02-13T03:45:51;98643.09;;;-3.74;60.26
43298;BME280;28892;55.640;37.532;2023-02-13T03:48:20;98631.50;;;-3.68;60.69
43298;BME280;28892;55.640;37.532;2023-02-13T03:51:07;98628.88;;;-3.55;60.40
43298;BME280;28892;55.640;37.532;2023-02-13T03:53:37;98635.41;;;-3.49;60.16
43298;BME280;28892;55.640;37.532;2023-02-13T03:56:05;98627.53;;;-3.61;60.41
43298;BME280;28892;55.640;37.532;2023-02-13T03:58:53;98626.91;;;-3.52;60.80
43298;BME280;28892;55.640;37.532;2023-02-13T04:01:39;98624.34;;;-3.77;61.01
43298;BME280;28892;55.640;37.532;2023-02-13T04:04:25;98627.03;;;-3.66;60.76
43298;BME280;28892;55.640;37.532;2023-02-13T04:06:59;98620.78;;;-3.63;61.32
43298;BME280;28892;55.640;37.532;2023-02-13T04:09:28;98629.50;;;-3.52;61.02
43298;BME280;28892;55.640;37.532;2023-02-13T04:15:05;98620.44;;;-3.33;60.41
43298;BME280;28892;55.640;37.532;2023-02-13T04:17:39;98616.38;;;-3.37;60.45
43298;BME280;28892;55.640;37.532;2023-02-13T04:20:07;98605.28;;;-3.39;60.21
43298;BME280;28892;55.640;37.532;2023-02-13T04:22:32;98603.16;;;-3.58;60.90
43298;BME280;28892;55.640;37.532;2023-02-13T04:24:59;98597.03;;;-3.57;61.00
43298;BME280;28892;55.640;37.532;2023-02-13T04:27:26;98589.25;;;-3.44;61.00
43298;BME280;28892;55.640;37.532;2023-02-13T04:29:53;98591.13;;;-3.46;60.94
43298;BME280;28892;55.640;37.532;2023-02-13T04:32:18;98584.78;;;-3.42;61.38
43298;BME280;28892;55.640;37.532;2023-02-13T04:34:44;98576.44;;;-3.34;61.00
43298;BME280;28892;55.640;37.532;2023-02-13T04:37:09;98573.22;;;-3.62;61.87
43298;BME280;28892;55.640;37.532;2023-02-13T04:39:35;98566.50;;;-3.78;62.58
43298;BME280;28892;55.640;37.532;2023-02-13T04:42:01;98575.69;;;-3.61;62.32
43298;BME280;28892;55.640;37.532;2023-02-13T04:44:27;98568.09;;;-3.51;62.21
43298;BME280;28892;55.640;37.532;2023-02-13T04:46:52;98572.03;;;-3.45;62.09
43298;BME280;28892;55.640;37.532;2023-02-13T04:49:18;98556.41;;;-3.57;62.37
43298;BME280;28892;55.640;37.532;2023-02-13T04:51:43;98554.19;;;-3.50;62.45
43298;BME280;28892;55.640;37.532;2023-02-13T04:54:09;98556.31;;;-3.31;62.09
43298;BME280;28892;55.640;37.532;2023-02-13T04:56:35;98541.97;;;-3.24;61.63
43298;BME280;28892;55.640;37.532;2023-02-13T04:59:01;98546.13;;;-3.58;62.88
43298;BME280;28892;55.640;37.532;2023-02-13T05:01:27;98551.72;;;-3.52;62.66
43298;BME280;28892;55.640;37.532;2023-02-13T05:03:53;98540.78;;;-3.44;62.03
43298;BME280;28892;55.640;37.532;2023-02-13T05:06:18;98533.53;;;-3.39;62.48
43298;BME280;28892;55.640;37.532;2023-02-13T05:08:44;98528.38;;;-3.27;62.06
43298;BME280;28892;55.640;37.532;2023-02-13T05:11:10;98514.75;;;-3.18;61.92
43298;BME280;28892;55.640;37.532;2023-02-13T05:13:35;98514.63;;;-3.16;61.79
43298;BME280;28892;55.640;37.532;2023-02-13T05:16:01;98517.44;;;-3.44;62.75
43298;BME280;28892;55.640;37.532;2023-02-13T05:18:27;98500.94;;;-3.18;62.06
43298;BME280;28892;55.640;37.532;2023-02-13T05:20:53;98494.19;;;-3.21;61.97
43298;BME280;28892;55.640;37.532;2023-02-13T05:23:37;98491.91;;;-3.37;62.72
43298;BME280;28892;55.640;37.532;2023-02-13T05:26:03;98499.47;;;-3.34;62.76
43298;BME280;28892;55.640;37.532;2023-02-13T05:28:29;98508.78;;;-3.31;62.85
43298;BME280;28892;55.640;37.532;2023-02-13T05:31:13;98500.56;;;-3.25;62.36
43298;BME280;28892;55.640;37.532;2023-02-13T05:33:39;98500.84;;;-3.17;62.34
43298;BME280;28892;55.640;37.532;2023-02-13T05:36:05;98497.03;;;-3.48;63.06
43298;BME280;28892;55.640;37.532;2023-02-13T05:38:31;98500.22;;;-3.45;63.31
43298;BME280;28892;55.640;37.532;2023-02-13T05:41:00;98496.94;;;-3.23;63.09
43298;BME280;28892;55.640;37.532;2023-02-13T05:43:27;98497.94;;;-3.74;64.00
43298;BME280;28892;55.640;37.532;2023-02-13T05:46:07;98483.59;;;-3.54;64.79
43298;BME280;28892;55.640;37.532;2023-02-13T05:48:34;98494.09;;;-3.44;64.08
43298;BME280;28892;55.640;37.532;2023-02-13T05:51:00;98492.59;;;-3.46;64.00
43298;BME280;28892;55.640;37.532;2023-02-13T05:53:26;98485.44;;;-3.31;63.44
43298;BME280;28892;55.640;37.532;2023-02-13T05:55:54;98499.31;;;-3.08;62.97
43298;BME280;28892;55.640;37.532;2023-02-13T05:58:20;98501.72;;;-2.93;62.72
43298;BME280;28892;55.640;37.532;2023-02-13T06:00:46;98500.25;;;-2.85;62.39
43298;BME280;28892;55.640;37.532;2023-02-13T06:03:12;98495.44;;;-2.67;61.88
43298;BME280;28892;55.640;37.532;2023-02-13T06:05:38;98502.84;;;-2.73;62.02
43298;BME280;28892;55.640;37.532;2023-02-13T06:08:04;98494.72;;;-2.69;62.20
43298;BME280;28892;55.640;37.532;2023-02-13T06:10:30;98499.75;;;-2.78;62.10
43298;BME280;28892;55.640;37.532;2023-02-13T06:12:56;98500.16;;;-2.60;61.75
43298;BME280;28892;55.640;37.532;2023-02-13T06:15:21;98487.97;;;-2.71;62.16
43298;BME280;28892;55.640;37.532;2023-02-13T06:17:47;98487.84;;;-2.81;62.47
43298;BME280;28892;55.640;37.532;2023-02-13T06:20:13;98484.66;;;-2.85;62.93
43298;BME280;28892;55.640;37.532;2023-02-13T06:22:38;98487.13;;;-2.83;63.86
43298;BME280;28892;55.640;37.532;2023-02-13T06:25:11;98474.41;;;-2.75;63.88
43298;BME280;28892;55.640;37.532;2023-02-13T06:27:56;98493.53;;;-2.64;63.04
43298;BME280;28892;55.640;37.532;2023-02-13T06:30:28;98490.72;;;-2.50;63.14
43298;BME280;28892;55.640;37.532;2023-02-13T06:32:57;98486.56;;;-2.75;63.31
43298;BME280;28892;55.640;37.532;2023-02-13T06:35:23;98494.75;;;-2.57;63.54
43298;BME280;28892;55.640;37.532;2023-02-13T06:37:48;98490.03;;;-2.41;62.88
43298;BME280;28892;55.640;37.532;2023-02-13T06:40:15;98480.81;;;-2.33;62.69
43298;BME280;28892;55.640;37.532;2023-02-13T06:42:42;98475.63;;;-2.11;62.73
43298;BME280;28892;55.640;37.532;2023-02-13T06:45:09;98472.31;;;-2.01;62.13
43298;BME280;28892;55.640;37.532;2023-02-13T06:47:35;98470.16;;;-1.96;61.53
43298;BME280;28892;55.640;37.532;2023-02-13T06:50:00;98461.44;;;-1.95;61.52
43298;BME280;28892;55.640;37.532;2023-02-13T06:52:29;98455.69;;;-2.21;61.81
43298;BME280;28892;55.640;37.532;2023-02-13T06:54:55;98455.16;;;-2.04;61.75
43298;BME280;28892;55.640;37.532;2023-02-13T06:57:21;98453.66;;;-1.95;61.44
43298;BME280;28892;55.640;37.532;2023-02-13T06:59:54;98451.03;;;-1.84;60.92
43298;BME280;28892;55.640;37.532;2023-02-13T07:02:20;98433.78;;;-1.96;61.23
43298;BME280;28892;55.640;37.532;2023-02-13T07:04:45;98447.00;;;-1.99;61.40
43298;BME280;28892;55.640;37.532;2023-02-13T07:07:11;98435.31;;;-1.93;61.38
43298;BME280;28892;55.640;37.532;2023-02-13T07:09:39;98434.34;;;-1.92;61.62
43298;BME280;28892;55.640;37.532;2023-02-13T07:12:06;98428.31;;;-1.81;61.72
43298;BME280;28892;55.640;37.532;2023-02-13T07:14:31;98449.16;;;-1.93;61.49
43298;BME280;28892;55.640;37.532;2023-02-13T07:16:58;98431.63;;;-1.79;61.91
43298;BME280;28892;55.640;37.532;2023-02-13T07:19:24;98422.03;;;-1.67;61.54
43298;BME280;28892;55.640;37.532;2023-02-13T07:21:52;98419.28;;;-1.66;61.13
43298;BME280;28892;55.640;37.532;2023-02-13T07:24:18;98417.69;;;-1.90;61.64
43298;BME280;28892;55.640;37.532;2023-02-13T07:26:44;98427.19;;;-2.12;62.67
43298;BME280;28892;55.640;37.532;2023-02-13T07:29:10;98408.38;;;-2.04;62.74
43298;BME280;28892;55.640;37.532;2023-02-13T07:31:36;98409.13;;;-1.69;61.89
43298;BME280;28892;55.640;37.532;2023-02-13T07:34:01;98396.34;;;-1.61;61.56
43298;BME280;28892;55.640;37.532;2023-02-13T07:36:27;98390.47;;;-1.42;61.87
43298;BME280;28892;55.640;37.532;2023-02-13T07:38:56;98396.72;;;-1.44;61.31
43298;BME280;28892;55.640;37.532;2023-02-13T07:41:21;98391.84;;;-1.37;61.51
43298;BME280;28892;55.640;37.532;2023-02-13T07:43:52;98400.75;;;-1.19;61.08
43298;BME280;28892;55.640;37.532;2023-02-13T07:46:20;98385.59;;;-1.14;60.96
43298;BME280;28892;55.640;37.532;2023-02-13T07:48:46;98384.09;;;-1.06;60.83
43298;BME280;28892;55.640;37.532;2023-02-13T07:51:12;98386.44;;;-1.03;60.64
43298;BME280;28892;55.640;37.532;2023-02-13T07:53:37;98392.47;;;-1.03;60.58
43298;BME280;28892;55.640;37.532;2023-02-13T07:56:07;98398.91;;;-1.07;61.16
43298;BME280;28892;55.640;37.532;2023-02-13T07:58:34;98386.34;;;-1.23;61.38
43298;BME280;28892;55.640;37.532;2023-02-13T08:01:08;98384.47;;;-1.11;61.35
43298;BME280;28892;55.640;37.532;2023-02-13T08:03:37;98382.03;;;-1.13;61.43
43298;BME280;28892;55.640;37.532;2023-02-13T08:06:03;98372.41;;;-1.12;61.66
43298;BME280;28892;55.640;37.532;2023-02-13T08:08:29;98385.75;;;-1.05;61.84
43298;BME280;28892;55.640;37.532;2023-02-13T08:10:55;98394.41;;;-1.05;61.82
43298;BME280;28892;55.640;37.532;2023-02-13T08:13:40;98391.72;;;-1.15;62.19
43298;BME280;28892;55.640;37.532;2023-02-13T08:16:07;98388.44;;;-0.95;61.82
43298;BME280;28892;55.640;37.532;2023-02-13T08:18:32;98377.75;;;-0.92;61.80
43298;BME280;28892;55.640;37.532;2023-02-13T08:21:00;98381.91;;;-0.80;61.63
43298;BME280;28892;55.640;37.532;2023-02-13T08:23:26;98380.44;;;-0.73;61.39
43298;BME280;28892;55.640;37.532;2023-02-13T08:25:53;98355.66;;;-0.67;61.87
43298;BME280;28892;55.640;37.532;2023-02-13T08:28:19;98352.91;;;-0.65;62.05
43298;BME280;28892;55.640;37.532;2023-02-13T08:30:44;98345.00;;;-0.54;61.92
43298;BME280;28892;55.640;37.532;2023-02-13T08:33:10;98354.31;;;-0.51;61.86
43298;BME280;28892;55.640;37.532;2023-02-13T08:35:36;98351.59;;;-0.50;61.83
43298;BME280;28892;55.640;37.532;2023-02-13T08:38:03;98351.06;;;-0.44;61.85
43298;BME280;28892;55.640;37.532;2023-02-13T08:40:30;98341.97;;;-0.49;61.93
43298;BME280;28892;55.640;37.532;2023-02-13T08:43:04;98342.16;;;-0.41;62.21
43298;BME280;28892;55.640;37.532;2023-02-13T08:45:31;98332.22;;;-0.57;62.42
43298;BME280;28892;55.640;37.532;2023-02-13T08:47:58;98339.25;;;-0.48;62.60
43298;BME280;28892;55.640;37.532;2023-02-13T08:50:25;98333.75;;;-0.54;62.72
43298;BME280;28892;55.640;37.532;2023-02-13T08:52:53;98331.44;;;-0.48;62.98
43298;BME280;28892;55.640;37.532;2023-02-13T08:55:19;98337.94;;;-0.32;62.75
43298;BME280;28892;55.640;37.532;2023-02-13T08:57:45;98327.38;;;-0.31;62.66
43298;BME280;28892;55.640;37.532;2023-02-13T09:00:11;98330.28;;;-0.75;63.86
43298;BME280;28892;55.640;37.532;2023-02-13T09:02:37;98323.28;;;-0.74;64.68
43298;BME280;28892;55.640;37.532;2023-02-13T09:05:06;98326.22;;;-0.58;64.31
43298;BME280;28892;55.640;37.532;2023-02-13T09:07:32;98319.53;;;-0.40;63.78
43298;BME280;28892;55.640;37.532;2023-02-13T09:09:58;98315.06;;;-0.19;63.33
43298;BME280;28892;55.640;37.532;2023-02-13T09:12:23;98312.44;;;-0.19;63.53
43298;BME280;28892;55.640;37.532;2023-02-13T09:14:54;98320.13;;;-0.07;63.00
43298;BME280;28892;55.640;37.532;2023-02-13T09:17:20;98312.88;;;-0.04;62.54
43298;BME280;28892;55.640;37.532;2023-02-13T09:19:46;98309.84;;;-0.19;63.33
43298;BME280;28892;55.640;37.532;2023-02-13T09:22:14;98312.16;;;-0.06;63.18
43298;BME280;28892;55.640;37.532;2023-02-13T09:24:41;98301.47;;;-0.03;62.84
43298;BME280;28892;55.640;37.532;2023-02-13T09:27:07;98304.88;;;-0.02;62.86
43298;BME280;28892;55.640;37.532;2023-02-13T09:29:33;98294.06;;;-0.07;63.36
43298;BME280;28892;55.640;37.532;2023-02-13T09:32:06;98297.09;;;0.08;63.40
43298;BME280;28892;55.640;37.532;2023-02-13T09:34:32;98278.28;;;0.04;63.17
43298;BME280;28892;55.640;37.532;2023-02-13T09:36:58;98267.03;;;-0.06;63.43
43298;BME280;28892;55.640;37.532;2023-02-13T09:39:24;98266.91;;;-0.05;63.52
43298;BME280;28892;55.640;37.532;2023-02-13T09:41:51;98247.13;;;0.03;63.65
43298;BME280;28892;55.640;37.532;2023-02-13T09:50:20;98239.00;;;0.35;63.47
43298;BME280;28892;55.640;37.532;2023-02-13T09:52:48;98242.78;;;0.51;63.44
43298;BME280;28892;55.640;37.532;2023-02-13T09:55:17;98238.34;;;0.61;63.46
43298;BME280;28892;55.640;37.532;2023-02-13T09:57:57;98237.47;;;0.80;63.25
43298;BME280;28892;55.640;37.532;2023-02-13T10:19:12;98228.91;;;1.16;62.49
43298;BME280;28892;55.640;37.532;2023-02-13T10:22:03;98215.75;;;1.08;62.43
43298;BME280;28892;55.640;37.532;2023-02-13T10:24:56;98225.06;;;1.20;62.48
43298;BME280;28892;55.640;37.532;2023-02-13T10:27:24;98232.06;;;1.20;61.87
43298;BME280;28892;55.640;37.532;2023-02-13T10:38:43;98223.16;;;1.13;62.96
43298;BME280;28892;55.640;37.532;2023-02-13T10:50:22;98197.31;;;0.91;64.11
43298;BME280;28892;55.640;37.532;2023-02-13T10:58:43;98182.88;;;1.15;63.29
43298;BME280;28892;55.640;37.532;2023-02-13T11:01:25;98177.72;;;1.23;63.46
43298;BME280;28892;55.640;37.532;2023-02-13T11:04:11;98165.66;;;1.22;63.74
43298;BME280;28892;55.640;37.532;2023-02-13T11:06:45;98156.38;;;1.28;63.64
43298;BME280;28892;55.640;37.532;2023-02-13T11:09:15;98150.50;;;1.26;63.15
43298;BME280;28892;55.640;37.532;2023-02-13T11:11:43;98138.00;;;1.20;63.63
43298;BME280;28892;55.640;37.532;2023-02-13T11:14:14;98149.66;;;1.25;63.66
43298;BME280;28892;55.640;37.532;2023-02-13T11:17:00;98145.63;;;1.13;64.75
43298;BME280;28892;55.640;37.532;2023-02-13T11:19:39;98135.69;;;0.99;64.98
43298;BME280;28892;55.640;37.532;2023-02-13T11:22:11;98136.69;;;1.34;64.17
43298;BME280;28892;55.640;37.532;2023-02-13T11:24:49;98139.28;;;1.34;63.91
43298;BME280;28892;55.640;37.532;2023-02-13T11:27:23;98145.19;;;1.54;63.64
43298;BME280;28892;55.640;37.532;2023-02-13T11:33:41;98144.13;;;1.29;63.70
43298;BME280;28892;55.640;37.532;2023-02-13T11:36:19;98137.00;;;1.31;63.77
43298;BME280;28892;55.640;37.532;2023-02-13T11:38:56;98148.91;;;1.33;64.31
43298;BME280;28892;55.640;37.532;2023-02-13T11:41:23;98140.41;;;1.13;64.33
43298;BME280;28892;55.640;37.532;2023-02-13T11:44:35;98120.41;;;1.22;64.91
43298;BME280;28892;55.640;37.532;2023-02-13T11:47:00;98113.97;;;1.16;64.50
43298;BME280;28892;55.640;37.532;2023-02-13T11:49:31;98115.41;;;1.10;65.16
43298;BME280;28892;55.640;37.532;2023-02-13T11:52:03;98108.09;;;1.14;65.21
43298;BME280;28892;55.640;37.532;2023-02-13T11:54:41;98100.41;;;1.31;64.84
43298;BME280;28892;55.640;37.532;2023-02-13T11:57:36;98100.47;;;1.39;65.30
43298;BME280;28892;55.640;37.532;2023-02-13T12:07:19;98079.63;;;1.47;64.60
43298;BME280;28892;55.640;37.532;2023-02-13T12:09:54;98089.78;;;1.32;65.10
43298;BME280;28892;55.640;37.532;2023-02-13T12:12:36;98074.19;;;1.41;64.78
43298;BME280;28892;55.640;37.532;2023-02-13T12:15:17;98072.16;;;1.52;64.91
43298;BME280;28892;55.640;37.532;2023-02-13T12:17:56;98075.34;;;1.64;64.60
43298;BME280;28892;55.640;37.532;2023-02-13T12:20:27;98079.44;;;1.67;64.23
43298;BME280;28892;55.640;37.532;2023-02-13T12:23:10;98062.25;;;1.64;64.39
43298;BME280;28892;55.640;37.532;2023-02-13T12:25:43;98071.47;;;1.69;64.36
43298;BME280;28892;55.640;37.532;2023-02-13T12:34:13;98074.00;;;1.60;64.88
43298;BME280;28892;55.640;37.532;2023-02-13T12:39:25;98061.88;;;0.96;67.34
43298;BME280;28892;55.640;37.532;2023-02-13T12:42:53;98057.34;;;1.17;66.88
43298;BME280;28892;55.640;37.532;2023-02-13T13:07:33;98034.22;;;1.48;67.11
43298;BME280;28892;55.640;37.532;2023-02-13T13:25:42;98015.50;;;1.88;65.89
43298;BME280;28892;55.640;37.532;2023-02-13T13:28:16;98018.91;;;1.80;65.55
43298;BME280;28892;55.640;37.532;2023-02-13T13:30:44;98006.41;;;1.65;65.41
43298;BME280;28892;55.640;37.532;2023-02-13T13:33:19;98012.44;;;1.66;65.82
43298;BME280;28892;55.640;37.532;2023-02-13T13:38:45;98028.53;;;1.79;65.60
43298;BME280;28892;55.640;37.532;2023-02-13T13:44:08;98020.28;;;1.92;65.39
43298;BME280;28892;55.640;37.532;2023-02-13T13:47:11;98018.44;;;1.85;66.17
43298;BME280;28892;55.640;37.532;2023-02-13T13:49:53;98011.41;;;1.85;65.96
43298;BME280;28892;55.640;37.532;2023-02-13T13:52:30;98005.97;;;1.78;66.17
43298;BME280;28892;55.640;37.532;2023-02-13T13:54:58;98010.34;;;1.70;66.37
43298;BME280;28892;55.640;37.532;2023-02-13T14:05:24;97994.56;;;1.27;70.43
43298;BME280;28892;55.640;37.532;2023-02-13T14:18:23;97989.72;;;1.58;68.21
43298;BME280;28892;55.640;37.532;2023-02-13T14:20:52;97987.03;;;1.50;67.91
43298;BME280;28892;55.640;37.532;2023-02-13T14:23:32;97973.03;;;1.59;68.24
43298;BME280;28892;55.640;37.532;2023-02-13T14:31:23;97956.03;;;1.29;69.29
43298;BME280;28892;55.640;37.532;2023-02-13T14:34:02;97950.47;;;1.23;69.31
43298;BME280;28892;55.640;37.532;2023-02-13T14:36:37;97940.88;;;1.32;68.34
43298;BME280;28892;55.640;37.532;2023-02-13T14:39:18;97960.00;;;1.33;68.65
43298;BME280;28892;55.640;37.532;2023-02-13T14:44:26;97957.66;;;1.30;68.78
43298;BME280;28892;55.640;37.532;2023-02-13T14:47:10;97932.88;;;1.34;68.70
43298;BME280;28892;55.640;37.532;2023-02-13T14:49:45;97944.38;;;0.96;69.85
43298;BME280;28892;55.640;37.532;2023-02-13T14:52:23;97939.28;;;1.13;70.02
43298;BME280;28892;55.640;37.532;2023-02-13T14:55:58;97943.16;;;1.35;69.38
43298;BME280;28892;55.640;37.532;2023-02-13T14:58:30;97928.50;;;1.43;69.18
43298;BME280;28892;55.640;37.532;2023-02-13T15:01:07;97915.41;;;1.34;69.11
43298;BME280;28892;55.640;37.532;2023-02-13T15:04:00;97929.34;;;1.17;69.93
43298;BME280;28892;55.640;37.532;2023-02-13T15:06:37;97917.66;;;1.29;69.36
43298;BME280;28892;55.640;37.532;2023-02-13T15:09:23;97900.91;;;1.40;69.22
43298;BME280;28892;55.640;37.532;2023-02-13T15:11:55;97895.53;;;1.42;68.63
43298;BME280;28892;55.640;37.532;2023-02-13T15:17:20;97868.69;;;1.31;69.47
43298;BME280;28892;55.640;37.532;2023-02-13T15:20:24;97876.59;;;1.13;70.11
43298;BME280;28892;55.640;37.532;2023-02-13T15:23:21;97870.66;;;1.29;69.07
43298;BME280;28892;55.640;37.532;2023-02-13T15:26:01;97849.28;;;1.34;69.31
43298;BME280;28892;55.640;37.532;2023-02-13T15:28:31;97846.00;;;1.32;69.10
43298;BME280;28892;55.640;37.532;2023-02-13T15:31:20;97857.34;;;1.57;68.91
43298;BME280;28892;55.640;37.532;2023-02-13T15:33:52;97847.84;;;1.39;68.79
43298;BME280;28892;55.640;37.532;2023-02-13T15:36:35;97852.28;;;1.47;68.99
43298;BME280;28892;55.640;37.532;2023-02-13T15:39:36;97862.34;;;1.34;70.00
43298;BME280;28892;55.640;37.532;2023-02-13T15:42:09;97859.81;;;1.24;69.57
43298;BME280;28892;55.640;37.532;2023-02-13T15:44:45;97817.50;;;1.12;70.18
43298;BME280;28892;55.640;37.532;2023-02-13T15:47:29;97822.13;;;1.27;69.88
43298;BME280;28892;55.640;37.532;2023-02-13T15:53:26;97811.47;;;0.85;71.01
43298;BME280;28892;55.640;37.532;2023-02-13T15:55:58;97818.97;;;0.80;71.94
43298;BME280;28892;55.640;37.532;2023-02-13T15:58:31;97818.75;;;1.00;71.74
43298;BME280;28892;55.640;37.532;2023-02-13T16:01:04;97810.59;;;1.03;71.22
43298;BME280;28892;55.640;37.532;2023-02-13T16:03:42;97805.75;;;1.16;70.84
43298;BME280;28892;55.640;37.532;2023-02-13T16:06:19;97791.72;;;1.17;70.87
43298;BME280;28892;55.640;37.532;2023-02-13T16:08:54;97792.13;;;1.31;70.61
43298;BME280;28892;55.640;37.532;2023-02-13T16:11:36;97801.31;;;1.51;70.04
43298;BME280;28892;55.640;37.532;2023-02-13T16:16:34;97795.91;;;1.36;70.24
43298;BME280;28892;55.640;37.532;2023-02-13T16:19:01;97791.00;;;0.99;71.58
43298;BME280;28892;55.640;37.532;2023-02-13T16:21:28;97797.50;;;1.29;70.41
43298;BME280;28892;55.640;37.532;2023-02-13T16:24:03;97786.91;;;1.39;70.62